createdAt,value
2022-08-24T00:01:12.309Z,17.20
2022-08-24T00:03:41.169Z,17.17
2022-08-24T00:06:12.691Z,17.15
2022-08-24T00:08:40.091Z,17.16
2022-08-24T00:11:07.788Z,17.06
2022-08-24T00:13:36.621Z,17.07
2022-08-24T00:16:07.804Z,16.99
2022-08-24T00:18:34.680Z,16.98
2022-08-24T00:21:03.999Z,16.95
2022-08-24T00:23:30.827Z,16.92
2022-08-24T00:25:58.074Z,16.86
2022-08-24T00:28:25.046Z,16.82
2022-08-24T00:30:52.064Z,16.81
2022-08-24T00:33:19.467Z,16.78
2022-08-24T00:35:46.611Z,16.70
2022-08-24T00:38:13.440Z,16.73
2022-08-24T00:40:45.722Z,16.73
2022-08-24T00:43:12.783Z,16.72
2022-08-24T00:46:05.577Z,16.70
2022-08-24T00:48:36.800Z,16.68
2022-08-24T00:51:27.621Z,16.68
2022-08-24T00:54:05.331Z,16.65
2022-08-24T00:56:37.926Z,16.63
2022-08-24T00:59:12.468Z,16.59
2022-08-24T01:01:39.998Z,16.58
2022-08-24T01:04:10.288Z,16.61
2022-08-24T01:06:37.186Z,16.60
2022-08-24T01:09:05.620Z,16.61
2022-08-24T01:11:35.186Z,16.47
2022-08-24T01:14:04.340Z,16.59
2022-08-24T01:16:50.221Z,16.59
2022-08-24T01:19:39.465Z,16.63
2022-08-24T01:22:24.497Z,16.63
2022-08-24T01:24:51.424Z,16.55
2022-08-24T01:27:19.964Z,16.45
2022-08-24T01:29:57.355Z,16.44
2022-08-24T01:32:25.424Z,16.38
2022-08-24T01:34:52.446Z,16.48
2022-08-24T01:37:19.361Z,16.52
2022-08-24T01:39:48.726Z,16.49
2022-08-24T01:42:16.617Z,16.32
2022-08-24T01:44:45.151Z,16.30
2022-08-24T01:47:15.597Z,16.19
2022-08-24T01:49:47.012Z,16.00
2022-08-24T01:52:20.038Z,15.85
2022-08-24T01:54:47.360Z,15.92
2022-08-24T01:57:17.102Z,15.97
2022-08-24T01:59:45.259Z,16.01
2022-08-24T02:02:36.132Z,16.03
2022-08-24T02:05:04.182Z,16.02
2022-08-24T02:07:33.029Z,16.05
2022-08-24T02:10:00.068Z,16.00
2022-08-24T02:12:27.312Z,15.98
2022-08-24T02:14:54.429Z,15.95
2022-08-24T02:17:22.083Z,15.95
2022-08-24T02:19:50.669Z,15.90
2022-08-24T02:22:18.730Z,15.87
2022-08-24T02:24:45.900Z,15.85
2022-08-24T02:27:16.412Z,15.77
2022-08-24T02:29:43.646Z,15.76
2022-08-24T02:32:12.541Z,15.73
2022-08-24T02:34:39.639Z,15.77
2022-08-24T02:37:07.036Z,15.75
2022-08-24T02:39:34.111Z,15.72
2022-08-24T02:42:05.520Z,15.61
2022-08-24T02:44:32.427Z,15.59
2022-08-24T02:47:00.563Z,15.61
2022-08-24T02:49:27.765Z,15.65
2022-08-24T02:51:54.570Z,15.62
2022-08-24T02:54:22.605Z,15.62
2022-08-24T02:56:54.092Z,15.64
2022-08-24T02:59:21.440Z,15.62
2022-08-24T03:01:50.160Z,15.71
2022-08-24T03:04:19.569Z,15.58
2022-08-24T03:06:46.454Z,15.64
2022-08-24T03:09:14.270Z,15.63
2022-08-24T03:11:42.688Z,15.67
2022-08-24T03:14:13.309Z,15.73
2022-08-24T03:16:40.510Z,15.75
2022-08-24T03:19:07.541Z,15.78
2022-08-24T03:21:36.280Z,15.80
2022-08-24T03:24:04.011Z,15.83
2022-08-24T03:26:31.480Z,15.86
2022-08-24T03:28:59.029Z,15.91
2022-08-24T03:31:27.447Z,15.92
2022-08-24T03:33:54.215Z,15.89
2022-08-24T03:36:21.508Z,15.87
2022-08-24T03:38:48.784Z,15.86
2022-08-24T03:41:16.030Z,15.75
2022-08-24T03:43:47.037Z,15.97
2022-08-24T03:46:22.441Z,15.99
2022-08-24T03:48:54.327Z,16.03
2022-08-24T03:51:24.501Z,15.98
2022-08-24T03:53:53.338Z,16.03
2022-08-24T03:56:23.397Z,16.04
2022-08-24T03:58:51.998Z,16.03
2022-08-24T04:01:18.896Z,16.00
2022-08-24T04:03:48.022Z,16.05
2022-08-24T04:06:17.802Z,16.09
2022-08-24T04:08:45.323Z,16.14
2022-08-24T04:11:15.388Z,16.14
2022-08-24T04:13:45.244Z,16.17
2022-08-24T04:16:14.673Z,16.22
2022-08-24T04:18:43.626Z,16.29
2022-08-24T04:21:18.241Z,16.35
2022-08-24T04:23:47.405Z,16.38
2022-08-24T04:26:43.342Z,16.43
2022-08-24T04:29:07.998Z,16.48
2022-08-24T04:31:41.064Z,16.58
2022-08-24T04:34:08.708Z,16.70
2022-08-24T04:36:37.031Z,16.74
2022-08-24T04:39:05.712Z,16.81
2022-08-24T04:41:57.546Z,16.92
2022-08-24T04:44:32.904Z,16.96
2022-08-24T04:47:01.474Z,17.10
2022-08-24T04:49:29.227Z,17.18
2022-08-24T04:51:56.403Z,17.25
2022-08-24T04:54:23.480Z,17.29
2022-08-24T04:57:02.761Z,17.22
2022-08-24T04:59:29.622Z,17.19
2022-08-24T05:01:56.620Z,17.28
2022-08-24T05:04:24.289Z,17.37
2022-08-24T05:06:53.241Z,17.33
2022-08-24T05:09:20.995Z,17.43
2022-08-24T05:11:49.914Z,17.48
2022-08-24T05:14:24.575Z,17.54
2022-08-24T05:16:55.198Z,17.56
2022-08-24T05:19:23.470Z,17.61
2022-08-24T05:21:51.091Z,17.57
2022-08-24T05:24:19.622Z,17.72
2022-08-24T05:26:46.989Z,17.70
2022-08-24T05:29:15.265Z,17.69
2022-08-24T05:31:48.345Z,17.64
2022-08-24T05:34:16.349Z,17.78
2022-08-24T05:36:43.335Z,17.87
2022-08-24T05:39:45.683Z,17.77
2022-08-24T05:42:13.645Z,17.77
2022-08-24T05:44:46.411Z,17.62
2022-08-24T05:47:15.251Z,17.66
2022-08-24T05:49:42.696Z,17.69
2022-08-24T05:52:10.634Z,17.88
2022-08-24T05:54:37.864Z,18.05
2022-08-24T05:57:06.511Z,18.18
2022-08-24T05:59:51.045Z,18.32
2022-08-24T06:02:19.149Z,18.57
2022-08-24T06:04:46.278Z,18.79
2022-08-24T06:07:13.486Z,18.96
2022-08-24T06:09:44.951Z,19.16
2022-08-24T06:12:12.376Z,19.27
2022-08-24T06:14:47.544Z,19.37
2022-08-24T06:17:16.899Z,19.51
2022-08-24T06:19:44.124Z,19.58
2022-08-24T06:22:11.131Z,19.71
2022-08-24T06:24:58.982Z,19.63
2022-08-24T06:27:26.915Z,19.66
2022-08-24T06:30:01.627Z,19.73
2022-08-24T06:32:47.166Z,19.97
2022-08-24T06:35:25.321Z,20.08
2022-08-24T06:37:54.798Z,19.89
2022-08-24T06:40:22.172Z,20.19
2022-08-24T06:42:49.216Z,20.27
2022-08-24T06:45:22.489Z,20.42
2022-08-24T06:47:51.158Z,20.59
2022-08-24T06:50:19.645Z,20.63
2022-08-24T06:52:51.209Z,20.48
2022-08-24T06:55:18.131Z,20.74
2022-08-24T06:57:47.957Z,20.84
2022-08-24T07:00:17.682Z,21.11
2022-08-24T07:02:45.100Z,21.10
2022-08-24T07:05:12.032Z,21.28
2022-08-24T07:07:59.290Z,21.52
2022-08-24T07:10:28.062Z,21.55
2022-08-24T07:12:56.188Z,21.54
2022-08-24T07:15:24.255Z,21.49
2022-08-24T07:18:04.795Z,21.67
2022-08-24T07:20:32.374Z,21.85
2022-08-24T07:23:14.769Z,22.03
2022-08-24T07:25:46.209Z,22.14
2022-08-24T07:28:17.028Z,22.27
2022-08-24T07:30:54.570Z,22.43
2022-08-24T07:33:22.197Z,22.65
2022-08-24T07:35:50.194Z,22.86
2022-08-24T07:38:22.247Z,22.86
2022-08-24T07:41:14.343Z,23.00
2022-08-24T07:43:42.423Z,23.08
2022-08-24T07:46:11.306Z,22.88
2022-08-24T07:48:38.286Z,22.89
2022-08-24T07:51:15.696Z,23.14
2022-08-24T07:53:53.496Z,23.46
2022-08-24T07:56:28.542Z,23.59
2022-08-24T07:58:58.167Z,23.52
2022-08-24T08:01:25.070Z,23.59
2022-08-24T08:03:53.478Z,23.62
2022-08-24T08:06:21.384Z,23.82
2022-08-24T08:08:51.802Z,24.17
2022-08-24T08:11:20.200Z,24.23
2022-08-24T08:13:47.119Z,24.41
2022-08-24T08:16:13.995Z,24.61
2022-08-24T08:18:41.945Z,24.99
2022-08-24T08:21:32.351Z,25.16
2022-08-24T08:24:18.077Z,25.47
2022-08-24T08:26:52.894Z,25.65
2022-08-24T08:29:44.283Z,25.57
2022-08-24T08:32:16.974Z,25.53
2022-08-24T08:34:45.084Z,25.64
2022-08-24T08:37:13.036Z,25.82
2022-08-24T08:39:40.768Z,25.91
2022-08-24T08:42:38.841Z,25.98
2022-08-24T08:45:27.909Z,25.74
2022-08-24T08:48:53.694Z,25.91
2022-08-24T08:51:49.573Z,26.40
2022-08-24T08:54:59.905Z,26.83
2022-08-24T08:57:48.513Z,27.06
2022-08-24T09:00:25.711Z,26.87
2022-08-24T09:03:22.361Z,27.02
2022-08-24T09:06:42.577Z,27.05
2022-08-24T09:09:33.046Z,27.52
2022-08-24T09:12:38.115Z,27.78
2022-08-24T09:15:36.694Z,28.13
2022-08-24T09:18:27.010Z,28.47
2022-08-24T09:21:03.740Z,28.80
2022-08-24T09:24:00.503Z,28.86
2022-08-24T09:26:49.567Z,28.35
2022-08-24T09:29:24.367Z,28.42
2022-08-24T09:32:15.082Z,28.45
2022-08-24T09:35:01.183Z,28.45
2022-08-24T09:38:05.510Z,28.44
2022-08-24T09:41:06.564Z,28.52
2022-08-24T09:43:47.198Z,28.56
2022-08-24T09:46:36.628Z,28.73
2022-08-24T09:49:32.406Z,28.75
2022-08-24T09:52:36.437Z,28.67
2022-08-24T09:55:37.231Z,28.82
2022-08-24T09:58:39.449Z,29.01
2022-08-24T10:01:27.901Z,29.35
2022-08-24T10:04:14.944Z,29.57
2022-08-24T10:07:10.551Z,30.12
2022-08-24T10:09:58.705Z,30.57
2022-08-24T10:12:35.695Z,30.83
2022-08-24T10:15:08.643Z,30.88
2022-08-24T10:18:27.029Z,30.98
2022-08-24T10:21:13.437Z,30.91
2022-08-24T10:24:15.898Z,30.90
2022-08-24T10:27:04.453Z,31.10
2022-08-24T10:29:55.702Z,31.20
2022-08-24T10:33:09.620Z,31.29
2022-08-24T10:35:52.364Z,31.49
2022-08-24T10:38:59.650Z,31.64
2022-08-24T10:41:51.205Z,31.63
2022-08-24T10:44:40.805Z,31.97
2022-08-24T10:47:29.195Z,32.12
2022-08-24T10:50:07.824Z,32.36
2022-08-24T10:53:25.667Z,32.39
2022-08-24T10:56:06.557Z,32.49
2022-08-24T10:58:39.239Z,32.78
2022-08-24T11:01:33.986Z,32.64
2022-08-24T11:04:28.154Z,32.74
2022-08-24T11:07:20.655Z,32.76
2022-08-24T11:10:02.024Z,32.80
2022-08-24T11:12:33.138Z,32.96
2022-08-24T11:15:05.071Z,32.95
2022-08-24T11:17:34.778Z,32.82
2022-08-24T11:20:02.475Z,32.64
2022-08-24T11:22:41.571Z,32.31
2022-08-24T11:25:16.115Z,32.50
2022-08-24T11:27:50.581Z,32.71
2022-08-24T11:30:20.291Z,32.80
2022-08-24T11:32:56.630Z,32.47
2022-08-24T11:35:31.856Z,32.33
2022-08-24T11:38:07.252Z,31.93
2022-08-24T11:40:40.841Z,31.61
2022-08-24T11:43:19.778Z,31.54
2022-08-24T11:45:52.288Z,31.35
2022-08-24T11:48:48.218Z,31.15
2022-08-24T11:51:32.528Z,31.20
2022-08-24T11:54:24.828Z,31.24
2022-08-24T11:57:16.461Z,31.32
2022-08-24T12:00:18.608Z,31.73
2022-08-24T12:02:55.501Z,32.18
2022-08-24T12:05:40.637Z,32.50
2022-08-24T12:08:31.057Z,32.76
2022-08-24T12:11:19.055Z,33.20
2022-08-24T12:13:54.058Z,32.99
2022-08-24T12:16:31.705Z,33.10
2022-08-24T12:19:06.652Z,33.50
2022-08-24T12:21:37.193Z,34.05
2022-08-24T12:24:08.256Z,33.87
2022-08-24T12:26:44.657Z,33.83
2022-08-24T12:29:41.837Z,33.86
2022-08-24T12:32:30.665Z,33.89
2022-08-24T12:35:06.262Z,34.15
2022-08-24T12:37:44.288Z,34.06
2022-08-24T12:40:29.338Z,33.61
2022-08-24T12:43:01.231Z,33.68
2022-08-24T12:45:28.212Z,33.09
2022-08-24T12:48:17.333Z,33.13
2022-08-24T12:51:08.737Z,33.07
2022-08-24T12:53:45.630Z,32.06
2022-08-24T12:56:27.701Z,31.05
2022-08-24T12:59:24.506Z,30.81
2022-08-24T13:02:17.601Z,31.32
2022-08-24T13:04:51.060Z,32.14
2022-08-24T13:07:23.726Z,32.30
2022-08-24T13:09:56.037Z,32.36
2022-08-24T13:12:39.300Z,32.29
2022-08-24T13:15:28.165Z,32.03
2022-08-24T13:17:57.776Z,31.97
2022-08-24T13:20:43.756Z,31.71
2022-08-24T13:23:11.069Z,31.53
2022-08-24T13:25:42.700Z,31.92
2022-08-24T13:28:34.969Z,31.94
2022-08-24T13:31:12.807Z,32.17
2022-08-24T13:33:42.865Z,32.24
2022-08-24T13:37:05.935Z,32.36
2022-08-24T13:39:44.469Z,32.48
2022-08-24T13:42:33.365Z,32.52
2022-08-24T13:45:00.088Z,32.99
2022-08-24T13:47:52.421Z,32.95
2022-08-24T13:50:38.011Z,33.07
2022-08-24T13:53:07.516Z,33.67
2022-08-24T13:55:43.711Z,33.72
2022-08-24T13:58:16.557Z,33.68
2022-08-24T14:00:50.885Z,33.95
2022-08-24T14:03:23.586Z,34.30
2022-08-24T14:05:57.507Z,34.34
2022-08-24T14:08:40.309Z,34.34
2022-08-24T14:11:47.890Z,33.22
2022-08-24T14:14:23.797Z,32.29
2022-08-24T14:17:40.515Z,30.89
2022-08-24T14:20:30.733Z,30.09
2022-08-24T14:23:20.800Z,30.69
2022-08-24T14:25:49.266Z,31.33
2022-08-24T14:28:34.213Z,32.14
2022-08-24T14:31:20.744Z,33.00
2022-08-24T14:34:00.381Z,33.23
2022-08-24T14:36:53.773Z,32.95
2022-08-24T14:39:39.363Z,33.09
2022-08-24T14:42:15.544Z,33.33
2022-08-24T14:44:42.761Z,33.06
2022-08-24T14:47:41.694Z,32.52
2022-08-24T14:50:12.952Z,32.04
2022-08-24T14:52:53.036Z,32.05
2022-08-24T14:55:37.687Z,31.85
2022-08-24T14:58:16.902Z,32.52
2022-08-24T15:01:12.285Z,32.62
2022-08-24T15:03:51.112Z,32.62
2022-08-24T15:06:28.492Z,32.48
2022-08-24T15:09:08.699Z,32.22
2022-08-24T15:11:38.295Z,31.98
2022-08-24T15:14:11.434Z,31.66
2022-08-24T15:17:12.587Z,31.82
2022-08-24T15:20:03.070Z,31.60
2022-08-24T15:22:40.331Z,31.44
2022-08-24T15:25:19.186Z,30.87
2022-08-24T15:27:50.776Z,30.02
2022-08-24T15:30:22.523Z,29.23
2022-08-24T15:33:09.376Z,28.90
2022-08-24T15:35:41.181Z,28.35
2022-08-24T15:38:22.146Z,28.00
2022-08-24T15:41:22.820Z,28.07
2022-08-24T15:44:04.546Z,27.64
2022-08-24T15:46:44.809Z,27.07
2022-08-24T15:49:18.087Z,26.81
2022-08-24T15:51:53.380Z,26.58
2022-08-24T15:54:24.979Z,26.47
2022-08-24T15:57:00.797Z,26.49
2022-08-24T15:59:29.127Z,26.81
2022-08-24T16:02:28.504Z,26.93
2022-08-24T16:05:21.527Z,26.80
2022-08-24T16:07:59.286Z,26.49
2022-08-24T16:10:31.625Z,26.12
2022-08-24T16:13:23.523Z,26.13
2022-08-24T16:15:50.299Z,25.90
2022-08-24T16:18:20.348Z,25.68
2022-08-24T16:20:49.007Z,25.59
2022-08-24T16:23:29.322Z,25.71
2022-08-24T16:26:19.633Z,26.06
2022-08-24T16:28:47.370Z,26.33
2022-08-24T16:31:44.412Z,26.35
2022-08-24T16:34:32.798Z,26.28
2022-08-24T16:36:59.900Z,26.12
2022-08-24T16:39:27.087Z,26.11
2022-08-24T16:41:58.605Z,25.95
2022-08-24T16:44:29.751Z,25.59
2022-08-24T16:46:56.570Z,25.34
2022-08-24T16:49:23.373Z,25.10
2022-08-24T16:51:50.113Z,24.83
2022-08-24T16:54:16.958Z,24.70
2022-08-24T16:56:43.761Z,24.57
2022-08-24T16:59:18.920Z,24.42
2022-08-24T17:01:46.706Z,24.30
2022-08-24T17:04:13.461Z,24.16
2022-08-24T17:06:40.535Z,24.04
2022-08-24T17:09:07.507Z,23.97
2022-08-24T17:11:36.941Z,23.85
2022-08-24T17:14:04.584Z,23.70
2022-08-24T17:16:32.097Z,23.66
2022-08-24T17:18:59.879Z,23.59
2022-08-24T17:21:26.843Z,23.55
2022-08-24T17:23:53.641Z,23.34
2022-08-24T17:26:21.805Z,23.31
2022-08-24T17:28:51.665Z,23.42
2022-08-24T17:31:18.597Z,23.37
2022-08-24T17:33:45.431Z,23.23
2022-08-24T17:36:15.912Z,23.33
2022-08-24T17:38:54.515Z,23.29
2022-08-24T17:41:23.674Z,23.17
2022-08-24T17:43:50.802Z,22.99
2022-08-24T17:46:19.668Z,23.05
2022-08-24T17:48:47.605Z,22.99
2022-08-24T17:51:15.109Z,22.92
2022-08-24T17:53:42.241Z,22.79
2022-08-24T17:56:13.117Z,22.71
2022-08-24T17:58:59.501Z,22.83
2022-08-24T18:01:27.562Z,22.79
2022-08-24T18:03:54.825Z,22.68
2022-08-24T18:06:23.813Z,22.78
2022-08-24T18:08:51.579Z,22.71
2022-08-24T18:11:21.568Z,22.71
2022-08-24T18:13:50.708Z,22.74
2022-08-24T18:16:21.101Z,22.75
2022-08-24T18:18:50.847Z,22.75
2022-08-24T18:21:20.181Z,22.68
2022-08-24T18:23:48.624Z,22.69
2022-08-24T18:26:28.591Z,22.73
2022-08-24T18:29:00.429Z,22.68
2022-08-24T18:31:30.635Z,22.60
2022-08-24T18:33:57.799Z,22.48
2022-08-24T18:36:24.634Z,22.45
2022-08-24T18:38:51.434Z,22.50
2022-08-24T18:41:18.451Z,22.47
2022-08-24T18:43:45.254Z,22.38
2022-08-24T18:46:12.665Z,22.35
2022-08-24T18:48:39.570Z,22.37
2022-08-24T18:51:06.610Z,22.23
2022-08-24T18:53:35.552Z,22.15
2022-08-24T18:56:09.296Z,22.03
2022-08-24T18:58:38.756Z,21.93
2022-08-24T19:01:06.279Z,21.94
2022-08-24T19:03:33.581Z,21.91
2022-08-24T19:06:00.921Z,21.76
2022-08-24T19:08:27.743Z,21.75
2022-08-24T19:10:55.948Z,21.71
2022-08-24T19:13:22.951Z,21.45
2022-08-24T19:15:50.412Z,21.52
2022-08-24T19:18:20.601Z,21.47
2022-08-24T19:20:50.441Z,21.28
2022-08-24T19:23:24.623Z,21.38
2022-08-24T19:25:52.286Z,21.41
2022-08-24T19:28:19.131Z,21.26
2022-08-24T19:30:47.075Z,21.10
2022-08-24T19:33:22.225Z,21.07
2022-08-24T19:35:51.063Z,21.06
2022-08-24T19:38:21.921Z,21.00
2022-08-24T19:40:51.609Z,20.93
2022-08-24T19:43:19.018Z,20.88
2022-08-24T19:46:06.288Z,20.77
2022-08-24T19:48:36.406Z,20.65
2022-08-24T19:51:08.066Z,20.68
2022-08-24T19:53:36.793Z,20.66
2022-08-24T19:56:05.571Z,20.62
2022-08-24T19:58:57.325Z,20.56
2022-08-24T20:01:28.289Z,20.48
2022-08-24T20:03:55.256Z,20.51
2022-08-24T20:06:24.008Z,20.46
2022-08-24T20:08:52.103Z,20.49
2022-08-24T20:11:19.604Z,20.40
2022-08-24T20:13:47.465Z,20.39
2022-08-24T20:16:19.854Z,20.41
2022-08-24T20:18:47.273Z,20.36
2022-08-24T20:21:16.054Z,20.34
2022-08-24T20:23:43.854Z,20.26
2022-08-24T20:26:11.836Z,20.34
2022-08-24T20:28:46.224Z,20.23
2022-08-24T20:31:13.982Z,20.16
2022-08-24T20:33:40.898Z,20.15
2022-08-24T20:36:14.529Z,20.13
2022-08-24T20:38:44.114Z,20.04
2022-08-24T20:41:11.371Z,20.04
2022-08-24T20:43:38.678Z,20.02
2022-08-24T20:46:06.039Z,19.97
2022-08-24T20:48:34.072Z,19.93
2022-08-24T20:51:01.469Z,19.72
2022-08-24T20:53:28.497Z,19.71
2022-08-24T20:55:57.337Z,19.66
2022-08-24T20:58:24.214Z,19.61
2022-08-24T21:00:51.144Z,19.62
2022-08-24T21:03:19.211Z,19.41
2022-08-24T21:05:48.512Z,19.39
2022-08-24T21:08:15.378Z,19.39
2022-08-24T21:10:42.531Z,19.39
2022-08-24T21:13:09.477Z,19.31
2022-08-24T21:15:38.349Z,19.27
2022-08-24T21:18:05.891Z,19.27
2022-08-24T21:20:33.022Z,19.24
2022-08-24T21:22:59.829Z,19.26
2022-08-24T21:25:27.422Z,19.15
2022-08-24T21:27:54.700Z,19.06
2022-08-24T21:30:22.777Z,19.11
2022-08-24T21:33:08.496Z,19.05
2022-08-24T21:35:36.401Z,19.07
2022-08-24T21:38:05.570Z,18.98
2022-08-24T21:40:35.678Z,19.10
2022-08-24T21:43:02.895Z,19.05
2022-08-24T21:45:36.148Z,19.02
2022-08-24T21:48:03.180Z,18.98
2022-08-24T21:50:30.156Z,18.90
2022-08-24T21:52:57.277Z,18.81
2022-08-24T21:55:26.620Z,18.79
2022-08-24T21:57:53.977Z,18.76
2022-08-24T22:00:22.110Z,18.75
2022-08-24T22:02:50.339Z,18.83
2022-08-24T22:05:18.182Z,18.86
2022-08-24T22:07:45.844Z,18.86
2022-08-24T22:10:13.343Z,18.85
2022-08-24T22:12:42.681Z,18.82
2022-08-24T22:15:13.113Z,18.76
2022-08-24T22:17:40.503Z,18.79
2022-08-24T22:20:22.303Z,18.76
2022-08-24T22:22:50.804Z,18.74
2022-08-24T22:25:17.654Z,18.72
2022-08-24T22:27:46.094Z,18.71
2022-08-24T22:30:15.511Z,18.72
2022-08-24T22:32:42.715Z,18.72
2022-08-24T22:35:10.074Z,18.72
2022-08-24T22:37:36.921Z,18.75
2022-08-24T22:40:05.291Z,18.74
2022-08-24T22:42:32.241Z,18.72
2022-08-24T22:44:59.952Z,18.68
2022-08-24T22:47:27.571Z,18.56
2022-08-24T22:49:55.124Z,18.50
2022-08-24T22:52:22.019Z,18.47
2022-08-24T22:54:49.395Z,18.47
2022-08-24T22:57:19.849Z,18.47
2022-08-24T22:59:46.840Z,18.44
2022-08-24T23:02:15.636Z,18.42
2022-08-24T23:04:48.236Z,18.48
2022-08-24T23:07:15.247Z,18.43
2022-08-24T23:09:45.007Z,18.48
2022-08-24T23:12:18.656Z,18.52
2022-08-24T23:14:46.247Z,18.54
2022-08-24T23:17:13.430Z,18.61
2022-08-24T23:19:58.824Z,18.61
2022-08-24T23:22:25.861Z,18.65
2022-08-24T23:24:53.326Z,18.72
2022-08-24T23:27:20.960Z,18.68
2022-08-24T23:29:49.507Z,18.65
2022-08-24T23:32:18.304Z,18.62
2022-08-24T23:34:48.282Z,18.61
2022-08-24T23:37:17.699Z,18.52
2022-08-24T23:39:45.154Z,18.54
2022-08-24T23:42:12.202Z,18.51
2022-08-24T23:44:39.542Z,18.38
2022-08-24T23:47:07.350Z,18.42
2022-08-24T23:49:35.018Z,18.47
2022-08-24T23:52:03.325Z,18.51
2022-08-24T23:54:30.166Z,18.50
2022-08-24T23:56:57.491Z,18.48
2022-08-24T23:59:28.137Z,18.53
